Time;durP1;ratioP1;P1;durP2;ratioP2;P2;SDS_P1;SDS_P2;PMS_P1;PMS_P2;Temp;Humidity;BMP_temperature;BMP_pressure;BME280_temperature;BME280_humidity;BME280_pressure;Samples;Min_cycle;Max_cycle;Signal;HPM_P1;HPM_P2
2023/12/16 00:01:07;;;;;;;8.30;1.20;;;7.50;99.90;;;;;;5036627;28;20412;-91
2023/12/16 00:03:33;;;;;;;9.23;1.67;;;7.50;99.90;;;;;;5019728;28;20401;-92
2023/12/16 00:06:00;;;;;;;7.17;1.70;;;7.70;99.90;;;;;;5020069;28;20401;-91
2023/12/16 00:08:25;;;;;;;7.75;1.40;;;7.30;99.90;;;;;;5018969;28;20790;-89
2023/12/16 00:10:51;;;;;;;9.82;1.75;;;7.40;99.90;;;;;;5020006;28;20424;-91
2023/12/16 00:13:17;;;;;;;8.17;1.67;;;7.40;99.90;;;;;;5019720;28;20394;-91
2023/12/16 00:15:42;;;;;;;8.93;1.40;;;7.30;99.90;;;;;;5018860;28;20516;-93
2023/12/16 00:18:08;;;;;;;8.88;1.90;;;7.20;99.90;;;;;;5019563;28;20409;-92
2023/12/16 00:20:34;;;;;;;7.78;1.38;;;7.10;99.90;;;;;;5019400;28;20414;-92
2023/12/16 00:23:00;;;;;;;8.10;1.63;;;7.00;99.90;;;;;;5020078;28;20432;-93
2023/12/16 00:25:26;;;;;;;7.43;1.65;;;7.10;99.90;;;;;;5019061;28;20496;-90
2023/12/16 00:27:52;;;;;;;7.55;1.92;;;7.30;99.90;;;;;;5018894;28;20459;-91
2023/12/16 00:30:18;;;;;;;6.80;1.83;;;7.00;99.90;;;;;;5016561;28;20417;-91
2023/12/16 00:32:43;;;;;;;8.13;1.95;;;6.90;99.90;;;;;;5016451;28;20409;-91
2023/12/16 00:35:09;;;;;;;9.73;1.93;;;7.20;99.90;;;;;;5016324;28;20433;-91
2023/12/16 00:37:35;;;;;;;8.85;1.70;;;7.10;99.90;;;;;;5015795;28;20402;-92
2023/12/16 00:40:02;;;;;;;7.65;1.85;;;6.60;99.90;;;;;;5016161;28;20451;-91
2023/12/16 00:42:29;;;;;;;8.63;2.25;;;6.80;99.90;;;;;;5015589;28;20417;-90
2023/12/16 00:44:56;;;;;;;8.95;1.83;;;6.70;99.90;;;;;;5016522;28;20421;-90
2023/12/16 00:47:22;;;;;;;7.47;1.73;;;6.60;99.90;;;;;;5015851;28;20413;-92
2023/12/16 00:49:47;;;;;;;9.00;2.13;;;6.90;99.90;;;;;;5016052;28;20815;-92
2023/12/16 00:52:13;;;;;;;9.82;2.15;;;6.90;99.90;;;;;;5015832;28;20727;-91
2023/12/16 00:54:39;;;;;;;8.80;1.60;;;6.80;99.90;;;;;;5015458;28;20437;-90
2023/12/16 00:57:04;;;;;;;9.53;2.03;;;6.90;99.90;;;;;;5032714;28;20410;-92
2023/12/16 00:59:30;;;;;;;13.07;1.98;;;6.60;99.90;;;;;;5015645;28;20409;-90
2023/12/16 01:01:56;;;;;;;9.17;1.60;;;6.50;99.90;;;;;;5016238;28;20761;-91
2023/12/16 01:04:21;;;;;;;9.80;1.73;;;6.50;99.90;;;;;;5015131;28;20947;-92
2023/12/16 01:06:47;;;;;;;8.25;1.50;;;6.80;99.90;;;;;;5032616;28;20420;-91
2023/12/16 01:09:13;;;;;;;7.63;1.65;;;6.40;99.90;;;;;;5015466;28;20401;-90
2023/12/16 01:11:40;;;;;;;10.63;1.70;;;6.40;99.90;;;;;;5015377;28;20428;-92
2023/12/16 01:14:06;;;;;;;9.73;1.85;;;6.60;99.90;;;;;;5015496;28;20920;-90
2023/12/16 01:16:32;;;;;;;9.05;1.58;;;6.70;99.90;;;;;;5014861;28;20493;-92
2023/12/16 01:18:57;;;;;;;8.77;1.40;;;6.40;99.90;;;;;;5015751;28;20432;-92
2023/12/16 01:21:23;;;;;;;6.50;1.37;;;6.60;99.90;;;;;;5031445;28;20401;-92
2023/12/16 01:23:49;;;;;;;11.05;1.33;;;6.40;99.90;;;;;;5015678;28;20397;-90
2023/12/16 01:26:14;;;;;;;7.43;1.35;;;6.40;99.90;;;;;;5014967;28;20463;-90
2023/12/16 01:28:40;;;;;;;8.77;1.70;;;6.40;99.90;;;;;;5031735;28;20492;-91
2023/12/16 01:31:06;;;;;;;10.13;1.27;;;6.70;99.90;;;;;;5015460;28;20630;-91
2023/12/16 01:33:31;;;;;;;9.70;1.30;;;6.50;99.90;;;;;;5015261;28;20531;-92
2023/12/16 01:35:57;;;;;;;8.38;1.23;;;6.40;99.90;;;;;;5015819;28;20429;-91
2023/12/16 01:38:23;;;;;;;9.52;1.00;;;6.70;99.90;;;;;;5031282;28;20409;-90
2023/12/16 01:40:49;;;;;;;7.70;1.00;;;6.50;99.90;;;;;;5018179;28;20404;-91
2023/12/16 01:43:14;;;;;;;9.30;1.23;;;6.30;99.90;;;;;;5033632;28;20910;-90
2023/12/16 01:45:40;;;;;;;8.90;1.23;;;6.40;99.90;;;;;;5035172;28;20422;-91
2023/12/16 01:48:07;;;;;;;8.80;0.85;;;6.40;99.90;;;;;;5034861;28;20472;-91
2023/12/16 01:50:33;;;;;;;8.13;1.08;;;6.40;99.90;;;;;;5018468;28;20398;-92
2023/12/16 01:53:00;;;;;;;8.50;1.10;;;6.40;99.90;;;;;;5015252;28;20498;-92
2023/12/16 01:55:27;;;;;;;8.10;1.30;;;6.40;99.90;;;;;;5014219;28;20524;-90
2023/12/16 01:57:55;;;;;;;8.18;1.05;;;6.40;99.90;;;;;;5015361;28;20408;-92
2023/12/16 02:00:21;;;;;;;10.85;1.08;;;6.50;99.90;;;;;;5013959;28;20409;-92
2023/12/16 02:02:48;;;;;;;7.68;1.23;;;6.40;99.90;;;;;;5015068;28;20421;-92
2023/12/16 02:05:13;;;;;;;8.10;1.63;;;6.60;99.90;;;;;;5014365;28;20445;-91
2023/12/16 02:07:39;;;;;;;9.70;1.13;;;6.40;99.90;;;;;;5031380;28;20394;-92
2023/12/16 02:10:05;;;;;;;11.67;1.53;;;6.70;99.90;;;;;;5014810;28;20428;-91
2023/12/16 02:12:34;;;;;;;9.03;1.50;;;6.40;99.90;;;;;;5013561;28;20405;-92
2023/12/16 02:15:00;;;;;;;8.85;1.23;;;6.80;99.90;;;;;;5011494;28;20474;-90
2023/12/16 02:17:26;;;;;;;10.98;1.85;;;6.60;99.90;;;;;;5010616;28;20507;-91
2023/12/16 02:19:54;;;;;;;9.57;1.17;;;6.40;99.90;;;;;;5011751;28;20438;-91
2023/12/16 02:22:20;;;;;;;9.05;1.35;;;6.50;99.90;;;;;;5010253;28;20409;-90
2023/12/16 02:24:47;;;;;;;9.90;1.73;;;6.40;99.90;;;;;;5027817;28;20448;-91
2023/12/16 02:27:13;;;;;;;8.82;1.42;;;6.40;99.90;;;;;;5010911;28;20399;-91
2023/12/16 02:29:39;;;;;;;7.50;1.50;;;6.20;99.90;;;;;;5010596;28;20415;-92
2023/12/16 02:32:06;;;;;;;8.48;1.33;;;6.60;99.90;;;;;;5011137;28;20414;-93
2023/12/16 02:34:31;;;;;;;11.80;1.40;;;6.40;99.90;;;;;;5010691;28;20833;-92
2023/12/16 02:36:57;;;;;;;11.07;1.50;;;6.40;99.90;;;;;;5011442;28;20407;-91
2023/12/16 02:39:23;;;;;;;14.13;1.92;;;6.40;99.90;;;;;;5010139;28;20930;-93
2023/12/16 02:41:48;;;;;;;15.00;1.60;;;6.40;99.90;;;;;;5011299;28;20502;-92
2023/12/16 02:44:14;;;;;;;10.02;1.77;;;6.40;99.90;;;;;;5010187;28;20414;-91
2023/12/16 02:46:40;;;;;;;9.87;1.30;;;6.70;99.90;;;;;;5010683;28;20419;-92
2023/12/16 02:49:06;;;;;;;9.10;1.60;;;6.40;99.90;;;;;;5027025;28;20411;-92
2023/12/16 02:51:31;;;;;;;9.40;1.70;;;6.40;99.90;;;;;;5009456;28;20407;-91
2023/12/16 02:53:57;;;;;;;13.25;1.52;;;6.40;99.90;;;;;;5010592;28;20411;-93
2023/12/16 02:56:22;;;;;;;11.70;1.73;;;6.30;99.90;;;;;;5009639;28;20442;-91
2023/12/16 02:58:50;;;;;;;11.38;1.85;;;6.30;99.90;;;;;;5010901;28;20415;-92
2023/12/16 03:01:16;;;;;;;11.80;1.55;;;6.70;99.90;;;;;;5010044;28;20744;-91
2023/12/16 03:03:42;;;;;;;10.45;1.77;;;6.50;99.90;;;;;;5010462;28;20457;-91
2023/12/16 03:06:08;;;;;;;12.90;1.87;;;6.50;99.90;;;;;;5010603;28;20410;-92
2023/12/16 03:08:35;;;;;;;12.17;1.97;;;6.60;99.90;;;;;;5010194;28;20426;-92
2023/12/16 03:11:02;;;;;;;14.27;2.28;;;6.30;99.90;;;;;;5010164;28;20890;-90
2023/12/16 03:13:27;;;;;;;13.43;2.13;;;6.40;99.90;;;;;;5010363;28;20462;-92
2023/12/16 03:15:53;;;;;;;14.67;2.30;;;6.30;99.90;;;;;;5015140;28;20473;-91
2023/12/16 03:18:19;;;;;;;14.13;2.45;;;6.50;99.90;;;;;;5010225;28;20565;-92
2023/12/16 03:20:45;;;;;;;12.98;2.40;;;6.40;99.90;;;;;;5018395;28;20421;-92
2023/12/16 03:23:10;;;;;;;14.48;1.67;;;6.30;99.90;;;;;;5018310;28;20419;-92
2023/12/16 03:25:39;;;;;;;14.97;1.83;;;6.40;99.90;;;;;;5010081;28;20464;-91
2023/12/16 03:28:05;;;;;;;11.43;1.92;;;6.50;99.90;;;;;;5010533;28;20415;-92
2023/12/16 03:30:30;;;;;;;11.50;2.28;;;6.20;99.90;;;;;;5009560;28;20490;-92
2023/12/16 03:32:56;;;;;;;13.70;2.33;;;6.30;99.90;;;;;;5010191;28;20489;-91
2023/12/16 03:35:22;;;;;;;12.97;1.97;;;6.20;99.90;;;;;;5025919;28;20434;-91
2023/12/16 03:37:48;;;;;;;13.38;2.10;;;6.20;99.90;;;;;;5010850;28;20499;-92
2023/12/16 03:40:14;;;;;;;14.73;2.30;;;6.20;99.90;;;;;;5009841;28;20551;-91
2023/12/16 03:42:39;;;;;;;15.18;2.10;;;6.20;99.90;;;;;;5026437;28;20454;-92
2023/12/16 03:45:06;;;;;;;11.55;2.28;;;6.10;99.90;;;;;;5026523;28;20415;-92
2023/12/16 03:47:35;;;;;;;13.60;2.83;;;6.20;99.90;;;;;;5009343;28;20399;-93
2023/12/16 03:50:00;;;;;;;15.35;2.20;;;6.60;99.90;;;;;;5010478;28;20407;-89
2023/12/16 03:52:26;;;;;;;18.98;2.50;;;6.10;99.90;;;;;;5009488;28;20464;-91
2023/12/16 03:54:52;;;;;;;15.80;2.00;;;6.30;99.90;;;;;;5010492;28;20434;-92
2023/12/16 03:57:18;;;;;;;14.50;2.13;;;6.20;99.90;;;;;;5009318;28;20404;-91
2023/12/16 03:59:43;;;;;;;16.17;2.40;;;6.20;99.90;;;;;;5010303;28;20535;-91
2023/12/16 04:02:09;;;;;;;14.73;2.20;;;6.20;99.90;;;;;;5009727;28;20415;-92
2023/12/16 04:04:35;;;;;;;13.45;2.50;;;6.20;99.90;;;;;;5028244;28;20411;-92
2023/12/16 04:07:01;;;;;;;12.50;2.38;;;6.70;99.90;;;;;;5013882;28;20414;-92
2023/12/16 04:09:28;;;;;;;16.85;3.05;;;6.40;99.90;;;;;;5029323;28;20993;-91
2023/12/16 04:11:54;;;;;;;17.48;2.55;;;6.40;99.90;;;;;;5013903;28;20411;-93
2023/12/16 04:14:20;;;;;;;16.92;2.97;;;6.40;99.90;;;;;;5013512;28;20458;-90
2023/12/16 04:16:46;;;;;;;16.58;2.97;;;6.30;99.90;;;;;;5016872;28;20969;-91
2023/12/16 04:19:13;;;;;;;17.53;2.80;;;6.30;99.90;;;;;;5016611;28;20410;-91
2023/12/16 04:21:39;;;;;;;18.17;2.80;;;6.40;99.90;;;;;;5016443;28;21031;-91
2023/12/16 04:24:05;;;;;;;16.90;2.35;;;6.30;99.90;;;;;;5016167;28;20408;-92
2023/12/16 04:26:31;;;;;;;18.27;2.87;;;6.40;99.90;;;;;;5015977;28;20402;-93
2023/12/16 04:28:56;;;;;;;17.80;3.30;;;6.40;99.90;;;;;;5016532;28;20401;-92
2023/12/16 04:31:22;;;;;;;18.27;3.45;;;6.80;99.90;;;;;;5015864;28;20467;-91
2023/12/16 04:33:50;;;;;;;19.15;3.08;;;6.40;99.90;;;;;;5017060;28;20512;-92
2023/12/16 04:36:16;;;;;;;18.05;2.72;;;6.40;99.90;;;;;;5015624;28;20425;-91
2023/12/16 04:38:43;;;;;;;18.88;3.38;;;6.40;99.90;;;;;;5016176;28;20896;-92
2023/12/16 04:41:15;;;;;;;18.38;3.40;;;6.70;99.90;;;;;;5016434;28;20726;-92
2023/12/16 04:43:41;;;;;;;15.93;2.53;;;6.80;99.90;;;;;;5015889;28;20409;-93
2023/12/16 04:46:07;;;;;;;17.65;3.00;;;6.50;99.90;;;;;;5016533;28;20923;-91
2023/12/16 04:48:33;;;;;;;19.35;3.40;;;6.70;99.90;;;;;;5015712;28;20409;-93
2023/12/16 04:51:06;;;;;;;14.60;2.50;;;6.70;99.90;;;;;;5016755;28;20409;-90
2023/12/16 04:53:33;;;;;;;18.67;3.50;;;6.50;99.90;;;;;;5015561;28;20417;-90
2023/12/16 04:55:59;;;;;;;17.35;3.28;;;6.60;99.90;;;;;;5015776;28;20804;-90
2023/12/16 04:58:25;;;;;;;18.48;3.60;;;6.80;99.90;;;;;;5015687;28;20409;-91
2023/12/16 05:00:51;;;;;;;21.30;3.33;;;6.80;99.90;;;;;;5015791;28;20799;-91
2023/12/16 05:03:17;;;;;;;14.80;3.45;;;6.60;99.90;;;;;;5032362;28;20406;-91
2023/12/16 05:05:43;;;;;;;17.83;3.90;;;6.60;99.90;;;;;;5031760;28;20459;-91
2023/12/16 05:08:09;;;;;;;18.20;3.90;;;6.50;99.90;;;;;;5015721;28;20406;-92
2023/12/16 05:10:35;;;;;;;15.40;3.40;;;6.50;99.90;;;;;;5014871;28;20405;-91
2023/12/16 05:13:01;;;;;;;17.23;3.63;;;6.60;99.90;;;;;;5016082;28;20416;-91
2023/12/16 05:15:26;;;;;;;16.97;4.07;;;6.70;99.90;;;;;;5027676;28;20446;-93
2023/12/16 05:17:52;;;;;;;16.77;3.83;;;6.70;99.90;;;;;;5012162;28;20412;-92
2023/12/16 05:20:18;;;;;;;18.95;3.80;;;6.70;99.90;;;;;;5012956;28;21043;-91
2023/12/16 05:22:43;;;;;;;18.70;3.97;;;6.70;99.90;;;;;;5011822;28;20411;-91
2023/12/16 05:25:09;;;;;;;21.47;4.53;;;6.70;99.90;;;;;;5012314;28;20411;-90
2023/12/16 05:27:35;;;;;;;16.73;4.22;;;6.90;99.90;;;;;;5011038;28;20422;-91
2023/12/16 05:30:02;;;;;;;18.37;4.03;;;6.80;99.90;;;;;;5012826;28;20510;-91
2023/12/16 05:32:28;;;;;;;21.88;4.70;;;7.10;99.90;;;;;;5011776;28;20509;-91
2023/12/16 05:34:55;;;;;;;20.87;4.97;;;7.10;99.90;;;;;;5011812;28;20435;-91
2023/12/16 05:37:21;;;;;;;24.65;5.72;;;7.00;99.90;;;;;;5011871;28;20403;-91
2023/12/16 05:39:47;;;;;;;19.92;5.13;;;7.10;99.90;;;;;;5011328;28;20501;-92
2023/12/16 05:42:13;;;;;;;23.05;5.00;;;7.00;99.90;;;;;;5011957;28;20427;-91
2023/12/16 05:44:39;;;;;;;24.45;5.82;;;7.20;99.90;;;;;;5011884;28;20813;-93
2023/12/16 05:47:08;;;;;;;25.80;6.50;;;7.00;99.90;;;;;;5012136;28;20411;-90
2023/12/16 05:49:34;;;;;;;21.03;6.30;;;7.10;99.90;;;;;;5011026;28;20415;-91
2023/12/16 05:52:01;;;;;;;22.55;5.88;;;7.10;99.90;;;;;;5012381;28;20426;-91
2023/12/16 05:54:27;;;;;;;26.98;6.75;;;7.10;99.90;;;;;;5011377;28;20477;-91
2023/12/16 05:56:53;;;;;;;25.25;6.57;;;7.30;99.90;;;;;;5011318;28;20403;-91
2023/12/16 05:59:19;;;;;;;22.05;6.70;;;7.00;99.90;;;;;;5011486;28;20769;-90
2023/12/16 06:01:45;;;;;;;24.33;6.63;;;7.30;99.90;;;;;;5011269;28;20407;-91
2023/12/16 06:04:10;;;;;;;26.30;6.88;;;7.20;99.90;;;;;;5012257;28;20879;-91
2023/12/16 06:06:36;;;;;;;25.77;7.00;;;7.50;99.90;;;;;;5010737;28;20464;-91
2023/12/16 06:09:02;;;;;;;27.65;7.05;;;7.30;99.90;;;;;;5011775;28;20894;-91
2023/12/16 06:11:27;;;;;;;24.10;7.35;;;7.40;99.90;;;;;;5027449;28;20553;-91
2023/12/16 06:13:53;;;;;;;29.37;7.97;;;7.10;99.90;;;;;;5011541;28;20411;-90
2023/12/16 06:16:19;;;;;;;27.43;7.90;;;7.40;99.90;;;;;;5011070;28;20521;-91
2023/12/16 06:18:46;;;;;;;36.10;8.43;;;7.40;99.90;;;;;;5027034;28;20498;-91
2023/12/16 06:21:12;;;;;;;28.02;7.80;;;7.70;99.90;;;;;;5009494;28;20407;-91
2023/12/16 06:23:38;;;;;;;29.55;8.02;;;7.40;99.90;;;;;;5027278;28;20426;-92
2023/12/16 06:26:04;;;;;;;27.08;8.38;;;7.80;99.90;;;;;;5010101;28;20419;-91
2023/12/16 06:28:29;;;;;;;31.40;9.07;;;7.40;99.90;;;;;;5008388;28;20412;-90
2023/12/16 06:30:55;;;;;;;28.20;8.63;;;7.60;99.90;;;;;;5011005;28;20413;-91
2023/12/16 06:33:23;;;;;;;27.40;9.07;;;7.50;99.90;;;;;;5010784;28;20795;-90
2023/12/16 06:35:50;;;;;;;31.13;9.40;;;7.50;99.90;;;;;;5010054;28;20478;-91
2023/12/16 06:38:15;;;;;;;36.30;9.90;;;7.80;99.90;;;;;;5027538;28;20443;-92
2023/12/16 06:40:41;;;;;;;32.23;9.60;;;7.50;99.90;;;;;;5010370;28;20466;-91
2023/12/16 06:43:07;;;;;;;30.73;10.25;;;7.60;99.90;;;;;;5010818;28;20461;-92
2023/12/16 06:45:33;;;;;;;34.47;10.77;;;7.60;99.90;;;;;;5009415;28;20490;-91
2023/12/16 06:47:59;;;;;;;32.97;9.73;;;7.50;99.90;;;;;;5010449;28;20415;-90
2023/12/16 06:50:25;;;;;;;35.13;10.45;;;7.60;99.90;;;;;;5010219;28;20411;-91
2023/12/16 06:52:50;;;;;;;36.42;10.63;;;7.50;99.90;;;;;;5009841;28;20968;-91
2023/12/16 06:55:17;;;;;;;34.63;10.88;;;7.50;99.90;;;;;;5010539;28;20921;-91
2023/12/16 06:57:44;;;;;;;35.17;12.55;;;7.90;99.90;;;;;;5026300;28;20839;-91
2023/12/16 07:00:10;;;;;;;35.35;11.40;;;7.30;99.90;;;;;;5010469;28;20452;-91
2023/12/16 07:02:43;;;;;;;35.60;12.13;;;7.60;99.90;;;;;;5008859;28;20407;-91
2023/12/16 07:05:12;;;;;;;38.00;12.47;;;7.50;99.90;;;;;;5010714;28;21340;-91
2023/12/16 07:07:38;;;;;;;43.22;12.50;;;7.50;99.90;;;;;;5009583;28;20419;-91
2023/12/16 07:10:07;;;;;;;37.80;11.80;;;7.60;99.90;;;;;;5010267;28;20438;-91
2023/12/16 07:12:33;;;;;;;39.05;11.43;;;7.50;99.90;;;;;;5010197;28;20506;-91
2023/12/16 07:14:58;;;;;;;36.95;11.57;;;7.60;99.90;;;;;;5009320;28;20522;-92
2023/12/16 07:17:24;;;;;;;38.28;11.18;;;7.80;99.90;;;;;;5010217;28;20418;-90
2023/12/16 07:19:50;;;;;;;36.45;11.20;;;7.60;99.90;;;;;;5009094;28;20969;-92
2023/12/16 07:22:16;;;;;;;36.97;11.70;;;7.80;99.90;;;;;;5010833;28;20469;-90
2023/12/16 07:24:43;;;;;;;45.70;12.65;;;7.90;99.90;;;;;;5009279;28;20419;-93
2023/12/16 07:27:08;;;;;;;41.35;12.15;;;7.70;99.90;;;;;;5009773;28;20410;-91
2023/12/16 07:29:34;;;;;;;48.17;13.30;;;8.20;99.90;;;;;;5007052;28;20403;-91
2023/12/16 07:32:00;;;;;;;42.85;12.85;;;7.70;99.90;;;;;;5008474;28;20890;-93
2023/12/16 07:34:26;;;;;;;48.80;13.25;;;7.70;99.90;;;;;;5005062;28;20432;-92
2023/12/16 07:36:52;;;;;;;44.28;12.80;;;7.70;99.90;;;;;;5022420;28;20897;-92
2023/12/16 07:39:18;;;;;;;39.15;12.43;;;7.70;99.90;;;;;;5027272;28;20424;-91
2023/12/16 07:41:44;;;;;;;40.33;12.63;;;7.70;99.90;;;;;;5026193;28;20404;-93
2023/12/16 07:44:11;;;;;;;41.13;13.40;;;7.90;99.90;;;;;;5015280;28;20407;-90
2023/12/16 07:46:39;;;;;;;42.77;12.90;;;7.80;99.90;;;;;;5012628;28;20498;-94
2023/12/16 07:49:05;;;;;;;52.78;14.23;;;8.30;99.90;;;;;;5013014;28;20484;-92
2023/12/16 07:51:30;;;;;;;43.03;12.33;;;7.80;99.90;;;;;;5013684;28;20505;-92
2023/12/16 07:53:56;;;;;;;47.95;12.45;;;7.80;99.90;;;;;;5029172;28;20797;-93
2023/12/16 07:56:24;;;;;;;47.63;13.68;;;8.10;99.90;;;;;;5013527;28;20751;-92
2023/12/16 07:58:51;;;;;;;54.75;14.43;;;7.80;99.90;;;;;;5012890;28;20845;-92
2023/12/16 08:01:18;;;;;;;52.67;14.87;;;7.90;99.90;;;;;;5030469;28;20917;-91
2023/12/16 08:03:44;;;;;;;52.08;15.27;;;7.90;99.90;;;;;;5012192;28;20912;-92
2023/12/16 08:06:10;;;;;;;52.17;15.40;;;7.60;99.90;;;;;;5030101;28;20407;-90
2023/12/16 08:08:39;;;;;;;50.65;15.32;;;7.90;99.90;;;;;;5013014;28;20419;-90
2023/12/16 08:11:05;;;;;;;45.50;15.45;;;8.00;99.90;;;;;;5012908;28;20472;-91
2023/12/16 08:13:32;;;;;;;50.97;15.43;;;7.90;99.90;;;;;;5013500;28;20465;-92
2023/12/16 08:15:58;;;;;;;48.03;14.90;;;7.80;99.90;;;;;;5012606;28;21017;-92
2023/12/16 08:18:25;;;;;;;49.73;15.07;;;8.00;99.90;;;;;;5029381;28;20510;-92
2023/12/16 08:20:51;;;;;;;49.88;14.55;;;8.00;99.90;;;;;;5012465;28;20415;-92
2023/12/16 08:23:18;;;;;;;44.88;14.13;;;7.80;99.90;;;;;;5013540;28;20415;-92
2023/12/16 08:25:43;;;;;;;47.05;13.95;;;8.00;99.90;;;;;;5012273;28;20498;-92
2023/12/16 08:28:09;;;;;;;56.58;14.88;;;7.90;99.90;;;;;;5012776;28;20564;-92
2023/12/16 08:30:35;;;;;;;51.83;16.00;;;7.90;99.90;;;;;;5029380;28;20419;-91
2023/12/16 08:33:00;;;;;;;53.83;14.73;;;8.00;99.90;;;;;;5012027;28;20494;-93
2023/12/16 08:35:27;;;;;;;52.60;14.38;;;7.90;99.90;;;;;;5013090;28;21023;-90
2023/12/16 08:37:55;;;;;;;46.13;13.02;;;8.00;99.90;;;;;;5011605;28;20418;-94
2023/12/16 08:40:21;;;;;;;50.78;12.65;;;8.00;99.90;;;;;;5013463;28;20431;-91
2023/12/16 08:42:49;;;;;;;51.60;13.13;;;8.00;99.90;;;;;;5011977;28;20407;-93
2023/12/16 08:45:17;;;;;;;46.95;11.32;;;8.00;99.90;;;;;;5028329;28;20414;-92
2023/12/16 08:47:43;;;;;;;48.70;11.37;;;8.20;99.90;;;;;;5010914;28;20407;-93
2023/12/16 08:50:09;;;;;;;50.03;11.63;;;8.10;99.90;;;;;;5010501;28;20450;-93
2023/12/16 08:52:36;;;;;;;42.72;11.95;;;8.30;99.90;;;;;;5012533;28;20403;-92
2023/12/16 08:55:05;;;;;;;51.20;12.55;;;8.20;99.90;;;;;;5011788;28;20434;-91
2023/12/16 08:57:31;;;;;;;46.95;12.38;;;8.20;99.90;;;;;;5028940;28;20516;-91
2023/12/16 08:59:57;;;;;;;52.20;13.27;;;7.90;99.90;;;;;;5011715;28;20407;-91
2023/12/16 09:02:23;;;;;;;54.10;13.20;;;8.20;99.90;;;;;;5012083;28;20921;-92
2023/12/16 09:04:49;;;;;;;55.97;12.73;;;8.30;99.90;;;;;;5011909;28;20774;-92
2023/12/16 09:07:16;;;;;;;51.85;13.77;;;8.40;99.90;;;;;;5011848;28;20767;-92
2023/12/16 09:09:44;;;;;;;51.95;12.63;;;8.30;99.90;;;;;;5011905;28;20426;-92
2023/12/16 09:12:10;;;;;;;58.42;12.75;;;8.30;99.90;;;;;;5011678;28;20894;-92
2023/12/16 09:14:37;;;;;;;54.28;13.27;;;8.30;99.90;;;;;;5012590;28;20762;-91
2023/12/16 09:17:03;;;;;;;54.00;12.40;;;8.30;99.90;;;;;;5011248;28;20403;-92
2023/12/16 09:19:29;;;;;;;49.55;12.02;;;8.40;99.90;;;;;;5011908;28;20744;-94
2023/12/16 09:21:54;;;;;;;55.15;12.93;;;8.70;99.90;;;;;;5011604;28;20411;-93
2023/12/16 09:24:20;;;;;;;51.77;11.93;;;8.40;99.90;;;;;;5011709;28;20403;-91
2023/12/16 09:26:47;;;;;;;49.47;12.05;;;8.80;99.90;;;;;;5011996;28;20422;-92
2023/12/16 09:29:13;;;;;;;57.20;12.20;;;8.40;99.90;;;;;;5011402;28;20437;-91
2023/12/16 09:31:39;;;;;;;54.22;12.52;;;8.40;99.90;;;;;;5011226;28;20464;-90
2023/12/16 09:34:05;;;;;;;54.92;13.35;;;8.40;99.90;;;;;;5011726;28;20425;-91
2023/12/16 09:36:31;;;;;;;53.07;14.03;;;8.30;99.90;;;;;;5012218;28;20513;-92
2023/12/16 09:38:57;;;;;;;57.07;13.20;;;8.50;99.90;;;;;;5011135;28;20446;-92
2023/12/16 09:41:25;;;;;;;55.53;14.93;;;8.40;99.90;;;;;;5011580;28;20541;-91
2023/12/16 09:43:55;;;;;;;55.63;13.63;;;8.50;99.90;;;;;;5011790;28;20411;-93
2023/12/16 09:46:27;;;;;;;50.05;14.75;;;8.60;99.90;;;;;;5011064;28;20816;-93
2023/12/16 09:48:54;;;;;;;50.90;14.70;;;8.60;99.90;;;;;;5012089;28;20464;-91
2023/12/16 09:51:23;;;;;;;51.53;15.00;;;8.40;99.90;;;;;;5027288;28;20418;-93
2023/12/16 09:53:53;;;;;;;51.70;14.32;;;8.40;99.90;;;;;;5011757;28;20415;-90
2023/12/16 09:56:20;;;;;;;49.83;14.30;;;8.50;99.90;;;;;;5011188;28;20441;-90
2023/12/16 09:58:47;;;;;;;50.83;13.48;;;8.70;99.90;;;;;;5010721;28;20417;-90
2023/12/16 10:01:13;;;;;;;58.28;16.27;;;8.20;99.90;;;;;;5010441;28;20447;-92
2023/12/16 10:03:40;;;;;;;53.97;15.65;;;8.40;99.90;;;;;;5026704;28;20415;-90
2023/12/16 10:06:07;;;;;;;55.17;15.48;;;8.50;99.90;;;;;;5011113;28;20899;-91
2023/12/16 10:08:34;;;;;;;58.17;16.95;;;8.40;99.90;;;;;;5010687;28;20468;-90
2023/12/16 10:11:02;;;;;;;59.67;15.30;;;8.40;99.90;;;;;;5011518;28;20421;-91
2023/12/16 10:13:30;;;;;;;60.17;16.63;;;8.40;99.90;;;;;;5026761;28;20443;-89
2023/12/16 10:15:56;;;;;;;64.43;17.30;;;8.30;99.90;;;;;;5014539;28;20448;-91
2023/12/16 10:18:22;;;;;;;61.38;17.73;;;9.10;99.90;;;;;;5010304;28;20449;-91
2023/12/16 10:20:48;;;;;;;57.03;18.27;;;8.90;99.90;;;;;;5010691;28;20431;-92
2023/12/16 10:23:14;;;;;;;56.93;18.43;;;8.40;99.90;;;;;;5009628;28;20407;-92
2023/12/16 10:25:41;;;;;;;64.22;18.10;;;8.60;99.90;;;;;;5010075;28;20929;-90
2023/12/16 10:28:06;;;;;;;63.23;18.50;;;8.80;99.90;;;;;;5027188;28;20411;-92
2023/12/16 10:30:33;;;;;;;58.43;18.90;;;8.50;99.90;;;;;;5010127;28;20407;-92
2023/12/16 10:33:03;;;;;;;64.85;19.77;;;8.40;99.90;;;;;;5011148;28;20411;-91
2023/12/16 10:35:31;;;;;;;61.20;19.63;;;9.10;99.90;;;;;;5010409;28;20427;-90
2023/12/16 10:37:57;;;;;;;51.75;18.00;;;8.50;99.90;;;;;;5010180;28;20758;-91
2023/12/16 10:40:23;;;;;;;52.28;18.45;;;8.50;99.90;;;;;;5010841;28;20419;-90
2023/12/16 10:42:49;;;;;;;47.90;17.77;;;8.50;99.90;;;;;;5010155;28;20755;-90
2023/12/16 10:45:15;;;;;;;54.83;18.23;;;8.60;99.90;;;;;;5010349;28;20430;-89
2023/12/16 10:47:41;;;;;;;51.97;18.43;;;9.00;99.90;;;;;;5009357;28;21032;-90
2023/12/16 10:50:08;;;;;;;53.33;18.40;;;8.50;99.90;;;;;;5010757;28;20502;-90
2023/12/16 10:52:42;;;;;;;50.58;17.75;;;8.60;99.90;;;;;;5010085;28;20418;-89
2023/12/16 10:55:19;;;;;;;45.35;17.40;;;8.60;99.90;;;;;;5025925;28;20434;-89
2023/12/16 10:57:58;;;;;;;49.30;17.98;;;9.00;99.90;;;;;;5010075;28;20414;-89
2023/12/16 11:00:26;;;;;;;39.92;16.52;;;8.70;99.90;;;;;;5009354;28;20482;-89
2023/12/16 11:03:24;;;;;;;41.35;17.30;;;8.50;99.90;;;;;;5010686;28;20407;-90
2023/12/16 11:05:54;;;;;;;46.83;19.20;;;8.70;99.90;;;;;;5009964;28;20426;-91
2023/12/16 11:08:22;;;;;;;45.13;18.80;;;8.80;99.90;;;;;;5009315;28;20483;-89
2023/12/16 11:10:48;;;;;;;46.45;18.95;;;8.80;99.90;;;;;;5010173;28;20444;-90
2023/12/16 11:13:15;;;;;;;40.25;16.92;;;8.70;99.90;;;;;;5009194;28;20775;-91
2023/12/16 11:15:40;;;;;;;39.13;16.90;;;8.70;99.90;;;;;;5010008;28;21152;-91
2023/12/16 11:18:26;;;;;;;41.40;17.48;;;9.00;99.90;;;;;;5009401;28;20400;-90
2023/12/16 11:20:56;;;;;;;39.88;18.85;;;8.60;99.90;;;;;;5009914;28;20443;-90
2023/12/16 11:23:26;;;;;;;39.58;18.40;;;8.70;99.90;;;;;;5009578;28;20451;-89
2023/12/16 11:25:55;;;;;;;37.80;18.50;;;8.70;99.90;;;;;;5009652;28;20411;-90
2023/12/16 11:28:21;;;;;;;43.03;17.38;;;8.70;99.90;;;;;;5009837;28;20392;-91
2023/12/16 11:30:47;;;;;;;41.07;17.33;;;8.70;99.90;;;;;;5004975;28;20430;-90
2023/12/16 11:33:13;;;;;;;38.63;15.75;;;8.80;99.90;;;;;;5008609;28;20446;-90
2023/12/16 11:35:46;;;;;;;39.43;15.90;;;8.80;99.90;;;;;;5025832;28;20886;-89
2023/12/16 11:38:35;;;;;;;38.08;15.40;;;8.90;99.90;;;;;;5007805;28;20412;-88
2023/12/16 11:41:02;;;;;;;34.90;14.47;;;9.10;99.90;;;;;;5016333;28;20509;-90
2023/12/16 11:43:48;;;;;;;36.27;14.00;;;8.80;99.90;;;;;;5028707;28;20412;-91
2023/12/16 11:46:33;;;;;;;39.17;15.13;;;9.10;99.90;;;;;;5030355;28;20413;-90
2023/12/16 11:49:02;;;;;;;35.88;14.18;;;8.90;99.90;;;;;;5045896;28;20789;-89
2023/12/16 11:51:28;;;;;;;48.08;15.38;;;8.90;99.90;;;;;;5029429;28;20795;-90
2023/12/16 11:53:56;;;;;;;35.92;13.95;;;8.90;99.90;;;;;;5029472;28;20402;-92
2023/12/16 11:56:21;;;;;;;35.97;13.85;;;9.00;99.90;;;;;;5029228;28;20793;-89
2023/12/16 11:58:47;;;;;;;34.17;13.15;;;9.00;99.90;;;;;;5028000;28;20421;-91
2023/12/16 12:01:13;;;;;;;38.00;13.90;;;9.00;99.90;;;;;;5025801;28;20497;-89
2023/12/16 12:03:39;;;;;;;37.97;14.33;;;9.00;99.90;;;;;;5010117;28;20411;-90
2023/12/16 12:06:05;;;;;;;39.30;13.70;;;9.10;99.90;;;;;;5009293;28;21010;-90
2023/12/16 12:08:31;;;;;;;37.72;13.63;;;9.10;99.90;;;;;;5009358;28;20399;-90
2023/12/16 12:10:57;;;;;;;36.80;13.93;;;9.30;99.90;;;;;;5010046;28;20937;-90
2023/12/16 12:13:24;;;;;;;35.38;13.15;;;9.10;99.90;;;;;;5009750;28;20850;-91
2023/12/16 12:15:50;;;;;;;36.40;13.98;;;9.20;99.90;;;;;;5009523;28;20435;-90
2023/12/16 12:18:15;;;;;;;36.67;13.53;;;9.20;99.90;;;;;;5008978;28;20411;-89
2023/12/16 12:20:41;;;;;;;35.10;13.43;;;9.20;99.90;;;;;;5009960;28;20545;-89
2023/12/16 12:23:07;;;;;;;38.67;13.55;;;9.30;99.90;;;;;;5009064;28;20513;-89
2023/12/16 12:25:33;;;;;;;34.75;13.25;;;9.30;99.90;;;;;;5011682;28;20469;-91
2023/12/16 12:27:59;;;;;;;32.72;12.77;;;9.30;99.90;;;;;;5029142;28;20411;-89
2023/12/16 12:30:26;;;;;;;33.53;13.00;;;9.80;99.90;;;;;;5012080;28;20403;-86
2023/12/16 12:32:52;;;;;;;33.22;12.90;;;9.40;99.90;;;;;;5012074;28;20928;-88
2023/12/16 12:35:21;;;;;;;32.28;12.70;;;9.40;99.90;;;;;;5011211;28;20427;-89
2023/12/16 12:37:47;;;;;;;29.98;12.45;;;9.40;99.90;;;;;;5029097;28;20490;-88
2023/12/16 12:40:13;;;;;;;28.60;12.30;;;9.40;99.90;;;;;;5011573;28;20419;-90